Main page
METAR-TAF:

METAR-TAF

Airports :

Kavala, Greece

Kavala International Airport

latitude: 40-59N, longitude: 024-36E, elevation: 5 m

Current weather observation

The report was made 25 minutes ago, at 04:50 UTC
Wind 6 kt from the Northeast
Temperature 6°C
Humidity 87%
Pressure 1021 hPa
Visibility 10 km or more
Scattered clouds at a height of 3000 ft
Broken clouds at a height of 8000 ft

METAR: LGKV 180450Z 04006KT 9999 SCT030 BKN080 06/04 Q1021

Time: 07:15 (05:15 UTC)

Forecast

The report was made 3 hours and 15 minutes ago, at 02:00 UTC
Forecast valid from 18 at 03 UTC to 18 at 12 UTC
Wind 5 kt from variable directions
Visibility 10 km or more
Scattered clouds at a height of 2500 ft

TAF: LGKV 180200Z 1803/1812 VRB05KT 9999 SCT025

Weather observations and forecasts of more than 4000 airports (METAR and TAF reports).

The available stations are represented by yellow and red dots on the map.

Hover mouse over dot to see the name of the station.

Then click to see weather observations and forecasts.

To change the map : click on the green buttons with a black cross to zoom in, on the green button with a dash to zoom out, or on the green arrows for adjacent maps.


METAR-TAF: